Time;durP1;ratioP1;P1;durP2;ratioP2;P2;SDS_P1;SDS_P2;PMS_P1;PMS_P2;Temp;Humidity;BMP_temperature;BMP_pressure;BME280_temperature;BME280_humidity;BME280_pressure;Samples;Min_cycle;Max_cycle;Signal;HPM_P1;HPM_P2
2020/12/09 00:00:04;;;;;;;39.50;16.33;;;1.80;99.90;;;;;;5050001;28;20516;-52
2020/12/09 00:02:32;;;;;;;39.07;17.60;;;1.80;99.90;;;;;;5050449;28;20459;-52
2020/12/09 00:04:58;;;;;;;35.73;16.00;;;1.80;99.90;;;;;;5064950;28;20476;-52
2020/12/09 00:07:25;;;;;;;40.83;16.33;;;1.90;99.90;;;;;;5068734;28;20456;-52
2020/12/09 00:09:51;;;;;;;36.20;16.20;;;1.90;99.90;;;;;;5069197;28;21041;-51
2020/12/09 00:12:18;;;;;;;38.37;15.97;;;1.90;99.90;;;;;;5050629;28;20455;-52
2020/12/09 00:14:44;;;;;;;46.87;19.30;;;1.90;99.90;;;;;;5049965;28;20447;-52
2020/12/09 00:17:11;;;;;;;35.10;15.77;;;1.80;99.90;;;;;;5050475;28;20455;-52
2020/12/09 00:19:38;;;;;;;38.97;16.63;;;1.80;99.90;;;;;;5050075;28;20473;-53
2020/12/09 00:22:05;;;;;;;40.17;17.03;;;1.80;99.90;;;;;;5050004;28;20827;-52
2020/12/09 00:24:31;;;;;;;39.23;17.00;;;1.80;99.90;;;;;;5051505;28;20455;-52
2020/12/09 00:26:58;;;;;;;43.33;17.80;;;1.80;99.90;;;;;;5049792;28;20479;-52
2020/12/09 00:29:24;;;;;;;41.80;17.27;;;1.80;99.90;;;;;;5049713;28;20480;-52
2020/12/09 00:31:51;;;;;;;35.83;17.10;;;1.80;99.90;;;;;;5049584;28;20483;-52
2020/12/09 00:34:17;;;;;;;39.37;16.53;;;1.80;99.90;;;;;;5050203;28;20488;-53
2020/12/09 00:36:45;;;;;;;38.30;16.80;;;1.70;99.90;;;;;;5049896;28;20872;-52
2020/12/09 00:39:12;;;;;;;37.43;15.60;;;1.70;99.90;;;;;;5053245;28;20447;-52
2020/12/09 00:41:38;;;;;;;38.50;17.03;;;1.70;99.90;;;;;;5054538;28;20468;-51
2020/12/09 00:44:05;;;;;;;41.90;16.83;;;1.70;99.90;;;;;;5049399;28;20452;-51
2020/12/09 00:46:31;;;;;;;40.47;16.50;;;1.80;99.90;;;;;;5049678;28;20475;-52
2020/12/09 00:48:58;;;;;;;36.90;16.90;;;1.80;99.90;;;;;;5051256;28;20458;-52
2020/12/09 00:51:27;;;;;;;37.03;16.17;;;1.80;99.90;;;;;;5050145;28;20478;-52
2020/12/09 00:53:54;;;;;;;36.70;15.67;;;1.80;99.90;;;;;;5050253;28;20458;-52
2020/12/09 00:56:21;;;;;;;35.13;14.80;;;1.90;99.90;;;;;;5050136;28;20461;-51
2020/12/09 00:58:47;;;;;;;41.37;17.20;;;1.90;99.90;;;;;;5050265;28;20459;-52
2020/12/09 01:01:14;;;;;;;39.40;17.00;;;1.80;99.90;;;;;;5050468;28;20467;-52
2020/12/09 01:03:41;;;;;;;40.20;16.83;;;1.80;99.90;;;;;;5051278;28;20532;-52
2020/12/09 01:06:08;;;;;;;38.53;16.70;;;1.60;99.90;;;;;;5050038;28;21216;-51
2020/12/09 01:08:35;;;;;;;36.87;16.47;;;1.60;99.90;;;;;;5049973;28;20456;-52
2020/12/09 01:11:03;;;;;;;36.60;15.27;;;1.60;99.90;;;;;;5049064;28;20491;-52
2020/12/09 01:13:30;;;;;;;33.37;15.47;;;1.70;99.90;;;;;;5049938;28;20459;-52
2020/12/09 01:15:56;;;;;;;32.33;14.90;;;1.70;99.90;;;;;;5049573;28;20448;-52
2020/12/09 01:18:23;;;;;;;33.70;15.63;;;1.70;99.90;;;;;;5050730;28;20467;-52
2020/12/09 01:20:49;;;;;;;32.83;13.90;;;1.80;99.90;;;;;;5049221;28;21163;-51
2020/12/09 01:23:16;;;;;;;27.30;14.03;;;1.70;99.90;;;;;;5049698;28;20448;-52
2020/12/09 01:25:43;;;;;;;29.97;14.30;;;1.80;99.90;;;;;;5049598;28;20451;-52
2020/12/09 01:28:10;;;;;;;31.27;14.87;;;1.80;99.90;;;;;;5049243;28;20993;-52
2020/12/09 01:30:36;;;;;;;42.90;16.53;;;1.60;99.90;;;;;;5048627;28;20483;-52
2020/12/09 01:33:03;;;;;;;35.17;15.10;;;1.60;99.90;;;;;;5049958;28;20458;-52
2020/12/09 01:35:29;;;;;;;29.93;14.13;;;1.60;99.90;;;;;;5050230;28;20448;-52
2020/12/09 01:37:56;;;;;;;32.97;14.40;;;1.60;99.90;;;;;;5049834;28;20505;-52
2020/12/09 01:40:22;;;;;;;29.40;13.90;;;1.70;99.90;;;;;;5049302;28;20964;-52
2020/12/09 01:42:49;;;;;;;30.40;14.10;;;1.80;99.90;;;;;;5050004;28;20443;-52
2020/12/09 01:45:17;;;;;;;32.07;13.80;;;1.80;99.90;;;;;;5049564;28;20554;-52
2020/12/09 01:47:45;;;;;;;32.10;15.07;;;1.80;99.90;;;;;;5050104;28;20451;-52
2020/12/09 01:50:13;;;;;;;32.63;14.83;;;1.80;99.90;;;;;;5050175;28;20483;-52
2020/12/09 01:52:40;;;;;;;33.30;14.90;;;1.90;99.90;;;;;;5050083;28;20479;-52
2020/12/09 01:55:07;;;;;;;36.30;16.03;;;1.80;99.90;;;;;;5049769;28;20468;-52
2020/12/09 01:57:33;;;;;;;41.43;17.90;;;1.70;99.90;;;;;;5052757;28;20459;-52
2020/12/09 02:00:00;;;;;;;38.90;16.60;;;1.60;99.90;;;;;;5053379;28;20474;-52
2020/12/09 02:02:28;;;;;;;38.93;17.03;;;1.60;99.90;;;;;;5053144;28;20512;-52
2020/12/09 02:04:55;;;;;;;40.23;17.40;;;1.50;99.90;;;;;;5054432;28;20497;-52
2020/12/09 02:07:22;;;;;;;40.30;17.27;;;1.40;99.90;;;;;;5053368;28;20452;-52
2020/12/09 02:09:59;;;;;;;36.53;16.97;;;1.60;99.90;;;;;;5052933;28;20544;-52
2020/12/09 02:12:26;;;;;;;37.80;16.60;;;1.50;99.90;;;;;;5052187;28;20478;-52
2020/12/09 02:14:52;;;;;;;35.10;16.30;;;1.70;99.90;;;;;;5052821;28;20477;-52
2020/12/09 02:17:19;;;;;;;36.50;15.97;;;1.70;99.90;;;;;;5052884;28;20512;-52
2020/12/09 02:19:46;;;;;;;31.13;14.57;;;1.60;99.90;;;;;;5063449;28;20447;-52
2020/12/09 02:22:14;;;;;;;36.23;15.50;;;1.50;99.90;;;;;;5050107;28;20452;-52
2020/12/09 02:24:40;;;;;;;32.00;15.20;;;1.50;99.90;;;;;;5053065;28;20445;-52
2020/12/09 02:27:07;;;;;;;31.93;14.50;;;1.60;99.90;;;;;;5052730;28;20452;-52
2020/12/09 02:29:33;;;;;;;35.50;15.67;;;1.40;99.90;;;;;;5051797;28;20531;-51
2020/12/09 02:32:00;;;;;;;27.60;13.77;;;1.50;99.90;;;;;;5052306;28;20462;-52
2020/12/09 02:34:27;;;;;;;32.73;14.60;;;1.40;99.90;;;;;;5053622;28;20490;-52
2020/12/09 02:36:53;;;;;;;31.37;14.07;;;1.50;99.90;;;;;;5053015;28;20451;-52
2020/12/09 02:39:29;;;;;;;36.87;15.70;;;1.40;99.90;;;;;;5052842;28;20451;-52
2020/12/09 02:41:55;;;;;;;33.87;15.07;;;1.50;99.90;;;;;;5052137;28;20459;-52
2020/12/09 02:44:22;;;;;;;34.00;15.23;;;1.50;99.90;;;;;;5051774;28;20452;-52
2020/12/09 02:46:48;;;;;;;35.33;15.67;;;1.50;99.90;;;;;;5052209;28;20448;-52
2020/12/09 02:49:15;;;;;;;29.97;14.77;;;1.60;99.90;;;;;;5052826;28;20513;-52
2020/12/09 02:51:41;;;;;;;31.27;14.20;;;1.60;99.90;;;;;;5052880;28;20509;-52
2020/12/09 02:54:08;;;;;;;34.50;14.70;;;1.50;99.90;;;;;;5052479;28;20455;-52
2020/12/09 02:56:35;;;;;;;36.07;17.33;;;1.60;99.90;;;;;;5052051;28;20452;-52
2020/12/09 02:59:02;;;;;;;37.40;16.03;;;1.50;99.90;;;;;;5052001;28;20512;-52
2020/12/09 03:01:33;;;;;;;31.33;15.10;;;1.50;99.90;;;;;;5055561;28;20468;-52
2020/12/09 03:04:00;;;;;;;35.53;15.50;;;1.60;99.90;;;;;;5051751;28;21029;-52
2020/12/09 03:06:26;;;;;;;34.73;14.77;;;1.70;99.90;;;;;;5052024;28;20447;-52
2020/12/09 03:08:56;;;;;;;36.63;15.50;;;1.80;99.90;;;;;;5051220;28;20494;-52
2020/12/09 03:11:23;;;;;;;35.03;16.20;;;1.70;99.90;;;;;;5051767;28;20486;-52
2020/12/09 03:13:51;;;;;;;32.63;14.87;;;1.70;99.90;;;;;;5052263;28;20940;-52
2020/12/09 03:16:18;;;;;;;28.90;14.47;;;1.80;99.90;;;;;;5057769;28;20448;-52
2020/12/09 03:18:44;;;;;;;33.27;15.67;;;1.80;99.90;;;;;;5052152;28;20466;-52
2020/12/09 03:21:11;;;;;;;32.63;13.60;;;2.00;99.90;;;;;;5051745;28;20468;-52
2020/12/09 03:23:38;;;;;;;34.83;15.17;;;1.90;99.90;;;;;;5056179;28;20827;-52
2020/12/09 03:26:05;;;;;;;31.40;14.50;;;1.80;99.90;;;;;;5057519;28;20497;-53
2020/12/09 03:28:33;;;;;;;35.17;16.03;;;1.80;99.90;;;;;;5050973;28;20502;-52
2020/12/09 03:31:01;;;;;;;35.57;15.30;;;1.80;99.90;;;;;;5051846;28;20486;-52
2020/12/09 03:33:27;;;;;;;33.97;16.13;;;1.90;99.90;;;;;;5051717;28;21019;-52
2020/12/09 03:35:55;;;;;;;34.03;15.60;;;1.90;99.90;;;;;;5051558;28;20501;-52
2020/12/09 03:38:21;;;;;;;31.97;14.60;;;1.90;99.90;;;;;;5051148;28;20448;-52
2020/12/09 03:40:49;;;;;;;31.23;14.27;;;1.90;99.90;;;;;;5051160;28;20536;-52
2020/12/09 03:43:15;;;;;;;32.77;15.27;;;1.90;99.90;;;;;;5050719;28;20463;-52
2020/12/09 03:45:42;;;;;;;35.80;16.43;;;1.90;99.90;;;;;;5060505;28;20451;-52
2020/12/09 03:48:09;;;;;;;33.67;15.57;;;1.90;99.90;;;;;;5054837;28;20980;-52
2020/12/09 03:50:36;;;;;;;34.60;15.77;;;1.90;99.90;;;;;;5050557;28;20902;-52
2020/12/09 03:53:03;;;;;;;35.67;16.10;;;1.90;99.90;;;;;;5051311;28;20451;-52
2020/12/09 03:55:30;;;;;;;37.23;16.47;;;1.90;99.90;;;;;;5051786;28;20448;-52
2020/12/09 03:58:00;;;;;;;35.67;15.23;;;1.90;99.90;;;;;;5050645;28;20455;-52
2020/12/09 04:00:27;;;;;;;34.30;15.63;;;1.90;99.90;;;;;;5051662;28;20549;-51
2020/12/09 04:02:54;;;;;;;37.13;15.53;;;1.90;99.90;;;;;;5050957;28;20519;-52
2020/12/09 04:05:21;;;;;;;36.10;16.40;;;1.90;99.90;;;;;;5050935;28;20963;-52
2020/12/09 04:07:48;;;;;;;42.63;17.00;;;1.90;99.90;;;;;;5050868;28;20463;-52
2020/12/09 04:10:14;;;;;;;38.07;15.80;;;1.90;99.90;;;;;;5050454;28;20484;-53
2020/12/09 04:12:41;;;;;;;36.20;16.47;;;1.90;99.90;;;;;;5050671;28;20463;-52
2020/12/09 04:15:07;;;;;;;35.27;16.40;;;1.90;99.90;;;;;;5051933;28;20885;-52
2020/12/09 04:17:34;;;;;;;30.37;15.10;;;1.70;99.90;;;;;;5050823;28;20971;-52
2020/12/09 04:20:00;;;;;;;31.67;14.20;;;1.70;99.90;;;;;;5050359;28;20486;-52
2020/12/09 04:22:28;;;;;;;38.60;15.10;;;1.70;99.90;;;;;;5050229;28;20444;-52
2020/12/09 04:24:54;;;;;;;30.13;14.60;;;1.80;99.90;;;;;;5050048;28;20466;-53
2020/12/09 04:27:21;;;;;;;32.17;15.50;;;1.80;99.90;;;;;;5048859;28;20451;-52
2020/12/09 04:29:47;;;;;;;29.37;13.80;;;1.80;99.90;;;;;;5048791;28;20476;-52
2020/12/09 04:32:14;;;;;;;32.10;15.10;;;1.80;99.90;;;;;;5049659;28;20446;-52
2020/12/09 04:34:40;;;;;;;31.50;14.20;;;1.80;99.90;;;;;;5049632;28;20477;-52
2020/12/09 04:37:09;;;;;;;29.00;13.77;;;1.80;99.90;;;;;;5049381;28;20446;-52
2020/12/09 04:39:37;;;;;;;32.97;15.37;;;1.80;99.90;;;;;;5049706;28;20462;-52
2020/12/09 04:42:04;;;;;;;28.80;13.07;;;1.80;99.90;;;;;;5049440;28;20448;-52
2020/12/09 04:44:30;;;;;;;28.10;12.97;;;1.90;99.90;;;;;;5049174;28;20447;-52
2020/12/09 04:47:03;;;;;;;29.80;13.57;;;1.90;99.90;;;;;;5048881;28;20445;-52
2020/12/09 04:49:39;;;;;;;29.30;12.97;;;1.90;99.90;;;;;;5049322;28;20451;-51
2020/12/09 04:52:31;;;;;;;30.10;13.87;;;1.90;99.90;;;;;;5048987;28;20439;-52
2020/12/09 04:55:06;;;;;;;28.70;14.30;;;1.90;99.90;;;;;;5052780;28;20609;-52
2020/12/09 04:57:52;;;;;;;36.37;14.83;;;1.90;99.90;;;;;;5048923;28;20450;-52
2020/12/09 05:00:19;;;;;;;28.60;13.23;;;1.80;99.90;;;;;;5048866;28;20860;-52
2020/12/09 05:02:48;;;;;;;32.13;14.53;;;1.90;99.90;;;;;;5048937;28;20811;-53
2020/12/09 05:05:16;;;;;;;30.53;13.93;;;2.00;99.90;;;;;;5050050;28;20888;-52
2020/12/09 05:07:48;;;;;;;42.37;15.70;;;2.00;99.90;;;;;;5052151;28;20438;-52
2020/12/09 05:10:18;;;;;;;28.00;14.60;;;2.00;99.90;;;;;;5049176;28;20737;-52
2020/12/09 05:12:46;;;;;;;32.20;15.70;;;2.00;99.90;;;;;;5049494;28;20443;-52
2020/12/09 05:15:17;;;;;;;32.33;16.30;;;2.00;99.90;;;;;;5049243;28;20527;-52
2020/12/09 05:18:04;;;;;;;35.47;17.47;;;2.00;99.90;;;;;;5048902;28;20936;-51
2020/12/09 05:20:34;;;;;;;32.87;15.23;;;1.90;99.90;;;;;;5051554;28;20509;-52
2020/12/09 05:23:02;;;;;;;29.47;14.97;;;1.90;99.90;;;;;;5051923;28;20452;-51
2020/12/09 05:25:31;;;;;;;31.13;15.03;;;2.00;99.90;;;;;;5048796;28;20475;-52
2020/12/09 05:27:58;;;;;;;30.40;13.70;;;2.00;99.90;;;;;;5048858;28;20874;-52
2020/12/09 05:30:45;;;;;;;29.63;15.03;;;2.10;99.90;;;;;;5050908;28;20543;-52
2020/12/09 05:33:15;;;;;;;33.77;16.00;;;2.10;99.90;;;;;;5052890;28;20498;-51
2020/12/09 05:35:42;;;;;;;28.60;14.60;;;2.10;99.90;;;;;;5052797;28;20957;-52
2020/12/09 05:38:14;;;;;;;34.07;16.77;;;2.10;99.90;;;;;;5052898;28;20446;-52
2020/12/09 05:40:43;;;;;;;33.90;15.93;;;2.10;99.90;;;;;;5052488;28;20517;-52
2020/12/09 05:43:11;;;;;;;32.63;16.27;;;2.00;99.90;;;;;;5052688;28;20525;-51
2020/12/09 05:45:37;;;;;;;33.50;16.00;;;2.00;99.90;;;;;;5052553;28;20963;-52
2020/12/09 05:48:15;;;;;;;33.00;16.33;;;2.00;99.90;;;;;;5052608;28;20451;-52
2020/12/09 05:50:53;;;;;;;35.10;16.10;;;2.00;99.90;;;;;;5052049;28;20483;-52
2020/12/09 05:53:21;;;;;;;33.33;15.77;;;2.10;99.90;;;;;;5048448;28;20457;-52
2020/12/09 05:55:54;;;;;;;35.57;16.90;;;2.10;99.90;;;;;;5052138;28;20481;-52
2020/12/09 05:58:27;;;;;;;37.10;16.43;;;2.10;99.90;;;;;;5052406;28;20522;-52
2020/12/09 06:01:08;;;;;;;33.00;15.07;;;2.00;99.90;;;;;;5052756;28;20467;-53
2020/12/09 06:03:35;;;;;;;33.80;15.87;;;2.10;99.90;;;;;;5051897;28;20446;-52
2020/12/09 06:06:16;;;;;;;33.57;15.80;;;2.10;99.90;;;;;;5051788;28;20880;-51
2020/12/09 06:08:46;;;;;;;31.90;16.03;;;2.10;99.90;;;;;;5051618;28;20926;-52
2020/12/09 06:11:14;;;;;;;30.03;15.43;;;2.00;99.90;;;;;;5051803;28;20495;-52
2020/12/09 06:13:41;;;;;;;37.70;15.87;;;2.00;99.90;;;;;;5051784;28;21272;-52
2020/12/09 06:16:09;;;;;;;31.97;15.43;;;2.00;99.90;;;;;;5053841;28;20509;-52
2020/12/09 06:18:37;;;;;;;39.20;16.90;;;2.10;99.90;;;;;;5051528;28;20443;-52
2020/12/09 06:21:05;;;;;;;35.37;16.70;;;2.10;99.90;;;;;;5051346;28;20467;-52
2020/12/09 06:23:32;;;;;;;44.17;19.27;;;2.10;99.90;;;;;;5052497;28;21074;-52
2020/12/09 06:26:01;;;;;;;38.40;18.23;;;2.00;99.90;;;;;;5054437;28;20482;-52
2020/12/09 06:28:30;;;;;;;38.03;18.03;;;2.00;99.90;;;;;;5049013;28;20436;-51
2020/12/09 06:30:59;;;;;;;39.80;20.20;;;2.10;99.90;;;;;;5054604;28;20495;-52
2020/12/09 06:33:30;;;;;;;35.90;18.13;;;2.10;99.90;;;;;;5051471;28;20440;-51
2020/12/09 06:36:20;;;;;;;40.27;19.93;;;2.10;99.90;;;;;;5051571;28;21010;-52
2020/12/09 06:39:15;;;;;;;36.77;18.90;;;2.10;99.90;;;;;;5051051;28;20502;-52
2020/12/09 06:42:01;;;;;;;36.27;18.33;;;2.20;99.90;;;;;;5015888;28;20867;-52
2020/12/09 06:44:30;;;;;;;34.70;16.93;;;2.20;99.90;;;;;;5053223;28;20540;-53
2020/12/09 06:46:57;;;;;;;39.00;18.77;;;2.20;99.90;;;;;;5055432;28;20871;-52
2020/12/09 06:49:41;;;;;;;36.97;17.50;;;2.20;99.90;;;;;;5050952;28;20522;-52
2020/12/09 06:52:30;;;;;;;40.53;17.97;;;2.30;99.90;;;;;;5050968;28;20561;-51
2020/12/09 06:54:57;;;;;;;39.17;18.07;;;2.30;99.90;;;;;;5051354;28;20444;-52
2020/12/09 06:57:26;;;;;;;44.13;18.30;;;2.20;99.90;;;;;;5048254;28;20451;-52
2020/12/09 07:00:15;;;;;;;36.93;15.83;;;2.20;99.90;;;;;;5050821;28;20451;-52
2020/12/09 07:02:42;;;;;;;36.03;16.40;;;2.20;99.90;;;;;;5052088;28;20444;-52
2020/12/09 07:05:18;;;;;;;39.80;17.10;;;2.30;99.90;;;;;;5047030;28;20440;-52
2020/12/09 07:07:46;;;;;;;36.20;16.80;;;2.20;99.90;;;;;;5048345;28;20502;-53
2020/12/09 07:10:23;;;;;;;41.27;17.97;;;2.10;99.90;;;;;;5052853;28;20521;-51
2020/12/09 07:12:58;;;;;;;47.60;20.90;;;2.20;99.90;;;;;;5050516;28;20447;-52
2020/12/09 07:15:25;;;;;;;45.87;20.47;;;2.30;99.90;;;;;;5050620;28;20503;-52
2020/12/09 07:17:53;;;;;;;52.00;23.43;;;2.30;99.90;;;;;;5051921;28;20503;-52
2020/12/09 07:20:20;;;;;;;46.70;20.70;;;2.20;99.90;;;;;;5050126;28;20467;-52
2020/12/09 07:22:47;;;;;;;49.57;21.67;;;2.10;99.90;;;;;;5051638;28;20444;-52
2020/12/09 07:25:13;;;;;;;42.23;20.10;;;2.00;99.90;;;;;;5053478;28;20452;-52
2020/12/09 07:27:40;;;;;;;44.47;19.67;;;2.00;99.90;;;;;;5054369;28;21021;-53
2020/12/09 07:30:07;;;;;;;41.50;18.37;;;2.00;99.90;;;;;;5050133;28;20537;-52
2020/12/09 07:32:35;;;;;;;36.03;17.77;;;2.10;99.90;;;;;;5046573;28;20451;-52
2020/12/09 07:35:04;;;;;;;37.50;18.30;;;2.10;99.90;;;;;;5050336;28;20451;-52
2020/12/09 07:37:33;;;;;;;42.30;17.33;;;2.10;99.90;;;;;;5050251;28;20502;-53
2020/12/09 07:40:10;;;;;;;40.50;18.63;;;2.00;99.90;;;;;;5049771;28;20513;-52
2020/12/09 07:42:37;;;;;;;42.20;17.60;;;2.10;99.90;;;;;;5050025;28;20446;-52
2020/12/09 07:45:10;;;;;;;36.30;17.13;;;2.10;99.90;;;;;;5050373;28;20889;-52
2020/12/09 07:47:38;;;;;;;41.23;17.83;;;2.10;99.90;;;;;;5050176;28;20448;-52
2020/12/09 07:50:06;;;;;;;48.53;19.10;;;2.10;99.90;;;;;;5049693;28;20494;-52
2020/12/09 07:52:35;;;;;;;42.13;18.53;;;2.30;99.90;;;;;;5050340;28;20447;-52
2020/12/09 07:55:03;;;;;;;45.07;19.00;;;2.20;99.90;;;;;;5050910;28;20447;-52
2020/12/09 07:57:32;;;;;;;41.60;19.50;;;2.20;99.90;;;;;;5049801;28;20444;-52
2020/12/09 07:59:59;;;;;;;50.87;21.83;;;2.20;99.90;;;;;;5049485;28;20494;-52
2020/12/09 08:02:28;;;;;;;60.27;25.30;;;2.10;99.90;;;;;;5049732;28;20521;-52
2020/12/09 08:05:17;;;;;;;48.60;22.10;;;2.10;99.90;;;;;;5049602;28;20444;-52
2020/12/09 08:07:57;;;;;;;40.90;19.57;;;2.10;99.90;;;;;;5048245;28;20999;-52
2020/12/09 08:10:29;;;;;;;39.27;16.83;;;2.30;99.90;;;;;;5045899;28;20483;-51
2020/12/09 08:13:08;;;;;;;55.30;19.53;;;2.30;99.90;;;;;;5045699;28;20502;-52
2020/12/09 08:15:36;;;;;;;41.80;20.13;;;2.30;99.90;;;;;;5046291;28;20435;-52
2020/12/09 08:18:04;;;;;;;40.27;18.33;;;2.10;99.90;;;;;;5045070;28;20916;-52
2020/12/09 08:20:44;;;;;;;39.27;17.77;;;2.20;99.90;;;;;;5048651;28;20896;-51
2020/12/09 08:23:11;;;;;;;44.23;19.77;;;2.30;99.90;;;;;;5049714;28;20938;-52
2020/12/09 08:25:46;;;;;;;44.27;20.00;;;2.30;99.90;;;;;;5049004;28;20469;-51
2020/12/09 08:28:15;;;;;;;43.53;19.60;;;2.30;99.90;;;;;;5048809;28;20444;-52
2020/12/09 08:30:41;;;;;;;45.50;19.70;;;2.50;99.90;;;;;;5048207;28;20491;-52
2020/12/09 08:33:25;;;;;;;45.23;19.90;;;2.50;99.90;;;;;;5049033;28;20443;-52
2020/12/09 08:35:58;;;;;;;49.83;21.87;;;2.50;99.90;;;;;;5047300;28;21139;-51
2020/12/09 08:38:36;;;;;;;46.23;20.17;;;2.60;99.90;;;;;;5049360;28;20494;-52
2020/12/09 08:41:05;;;;;;;46.33;20.47;;;2.50;99.90;;;;;;5049055;28;20470;-51
2020/12/09 08:43:34;;;;;;;39.07;19.10;;;2.40;99.90;;;;;;5049343;28;20802;-51
2020/12/09 08:46:01;;;;;;;41.80;19.23;;;2.40;99.90;;;;;;5049141;28;20527;-51
2020/12/09 08:48:28;;;;;;;43.63;20.37;;;2.40;99.90;;;;;;5048913;28;20448;-51
2020/12/09 08:50:55;;;;;;;43.93;19.80;;;2.40;99.90;;;;;;5048659;28;20492;-51
2020/12/09 08:53:22;;;;;;;39.73;19.60;;;2.40;99.90;;;;;;5048692;28;20979;-51
2020/12/09 08:55:49;;;;;;;51.93;20.97;;;2.50;99.90;;;;;;5048684;28;20995;-51
2020/12/09 08:58:17;;;;;;;46.90;21.20;;;2.40;99.90;;;;;;5048711;28;20440;-51
2020/12/09 09:00:43;;;;;;;43.70;19.40;;;2.30;99.90;;;;;;5048178;28;20513;-51
2020/12/09 09:03:12;;;;;;;37.53;18.33;;;2.20;99.90;;;;;;5048844;28;20447;-51
2020/12/09 09:05:41;;;;;;;44.93;20.70;;;2.40;99.90;;;;;;5048937;28;20462;-51
2020/12/09 09:08:09;;;;;;;44.40;19.53;;;2.30;99.90;;;;;;5052862;28;20821;-51
2020/12/09 09:10:35;;;;;;;42.70;19.33;;;2.30;99.90;;;;;;5052321;28;21049;-51
2020/12/09 09:13:02;;;;;;;41.43;20.17;;;2.30;99.90;;;;;;5052533;28;20443;-51
2020/12/09 09:15:28;;;;;;;41.23;19.17;;;2.20;99.90;;;;;;5052457;28;20478;-52
2020/12/09 09:17:55;;;;;;;38.67;17.73;;;2.40;99.90;;;;;;5052762;28;20444;-51
2020/12/09 09:20:22;;;;;;;38.07;18.43;;;2.50;99.90;;;;;;5056000;28;20466;-51
2020/12/09 09:22:48;;;;;;;38.63;17.73;;;2.60;99.90;;;;;;5052525;28;20497;-51
2020/12/09 09:25:15;;;;;;;38.13;17.40;;;2.60;99.90;;;;;;5052826;28;20447;-51
2020/12/09 09:27:42;;;;;;;39.90;19.20;;;2.70;99.90;;;;;;5052739;28;21010;-51
2020/12/09 09:30:09;;;;;;;44.30;19.37;;;2.70;99.90;;;;;;5053069;28;20479;-50
2020/12/09 09:32:35;;;;;;;36.70;17.00;;;2.60;99.90;;;;;;5053002;28;20508;-51
2020/12/09 09:35:02;;;;;;;33.03;16.40;;;2.70;99.90;;;;;;5053538;28;20459;-51
2020/12/09 09:37:29;;;;;;;37.00;16.43;;;2.70;99.90;;;;;;5053395;28;20824;-50
2020/12/09 09:39:56;;;;;;;38.17;17.90;;;2.80;99.90;;;;;;5053117;28;20556;-51
2020/12/09 09:42:24;;;;;;;32.27;16.80;;;2.80;99.90;;;;;;5052843;28;20440;-50
2020/12/09 09:44:51;;;;;;;41.40;18.60;;;2.70;99.90;;;;;;5053403;28;20855;-51
2020/12/09 09:47:18;;;;;;;41.23;18.23;;;2.60;99.90;;;;;;5052974;28;20450;-51
2020/12/09 09:49:45;;;;;;;37.00;17.03;;;2.60;99.90;;;;;;5053345;28;20492;-51
2020/12/09 09:52:11;;;;;;;36.37;16.30;;;2.60;99.90;;;;;;5053129;28;20498;-51
2020/12/09 09:54:39;;;;;;;29.20;15.00;;;2.70;99.90;;;;;;5053022;28;20505;-51
2020/12/09 09:57:05;;;;;;;35.97;17.93;;;2.80;99.90;;;;;;5052867;28;21003;-51
2020/12/09 09:59:32;;;;;;;37.20;18.30;;;2.60;99.90;;;;;;5053057;28;20505;-51
2020/12/09 10:01:59;;;;;;;37.83;18.03;;;2.60;99.90;;;;;;5053153;28;20444;-51
2020/12/09 10:04:25;;;;;;;31.43;15.57;;;2.70;99.90;;;;;;5053305;28;20504;-51
2020/12/09 10:06:52;;;;;;;32.13;15.00;;;2.80;99.90;;;;;;5053404;28;20448;-51
2020/12/09 10:09:19;;;;;;;26.43;12.30;;;2.70;99.90;;;;;;5053173;28;20455;-51
2020/12/09 10:11:46;;;;;;;28.13;13.87;;;2.80;99.90;;;;;;5052924;28;20532;-51
2020/12/09 10:14:13;;;;;;;30.20;14.63;;;2.80;99.90;;;;;;5053142;28;20908;-51
2020/12/09 10:16:43;;;;;;;29.77;13.40;;;2.90;99.90;;;;;;5052914;28;20448;-51
2020/12/09 10:19:09;;;;;;;23.53;12.40;;;2.90;99.90;;;;;;5052926;28;20968;-51
2020/12/09 10:21:36;;;;;;;25.87;12.50;;;2.90;99.90;;;;;;5053252;28;20472;-51
2020/12/09 10:24:05;;;;;;;26.10;13.27;;;2.80;99.90;;;;;;5052986;28;20447;-51
2020/12/09 10:26:32;;;;;;;20.40;10.50;;;3.00;99.90;;;;;;5053201;28;20504;-51
2020/12/09 10:29:01;;;;;;;22.33;10.50;;;3.10;99.90;;;;;;5052919;28;20448;-51
2020/12/09 10:31:36;;;;;;;21.20;10.03;;;3.00;99.90;;;;;;5052566;28;20486;-51
2020/12/09 10:34:04;;;;;;;22.63;9.93;;;3.00;99.90;;;;;;5052848;28;20847;-51
2020/12/09 10:36:31;;;;;;;20.83;10.27;;;2.90;99.90;;;;;;5053196;28;20856;-51
2020/12/09 10:38:59;;;;;;;20.50;10.20;;;2.90;99.90;;;;;;5052579;28;20454;-51
2020/12/09 10:41:25;;;;;;;19.43;10.13;;;2.90;99.90;;;;;;5052811;28;20684;-51
2020/12/09 10:43:54;;;;;;;19.17;9.03;;;2.90;99.90;;;;;;5052632;28;20962;-51
2020/12/09 10:46:21;;;;;;;17.40;9.10;;;2.90;99.90;;;;;;5052520;28;20857;-51
2020/12/09 10:48:48;;;;;;;20.57;9.13;;;2.90;99.90;;;;;;5051944;28;20949;-51
2020/12/09 10:51:16;;;;;;;19.00;9.27;;;2.90;99.90;;;;;;5052208;28;20484;-52
2020/12/09 10:53:42;;;;;;;15.50;8.87;;;2.90;99.90;;;;;;5052564;28;20948;-51
2020/12/09 10:56:08;;;;;;;16.53;9.37;;;2.90;99.90;;;;;;5055509;28;20492;-52
2020/12/09 10:58:35;;;;;;;20.17;11.20;;;2.90;99.90;;;;;;5052164;28;20447;-51
2020/12/09 11:01:01;;;;;;;16.97;9.23;;;3.00;99.90;;;;;;5052468;28;20514;-51
2020/12/09 11:03:28;;;;;;;20.67;10.10;;;3.10;99.90;;;;;;5052537;28;20455;-52
2020/12/09 11:05:54;;;;;;;19.80;10.27;;;3.10;99.90;;;;;;5052278;28;20455;-51
2020/12/09 11:08:22;;;;;;;17.00;9.13;;;2.90;99.90;;;;;;5051855;28;20481;-51
2020/12/09 11:10:48;;;;;;;19.63;11.50;;;3.00;99.90;;;;;;5051914;28;20911;-51
2020/12/09 11:13:15;;;;;;;21.37;10.87;;;3.10;99.90;;;;;;5052082;28;20440;-51
2020/12/09 11:15:41;;;;;;;20.87;10.17;;;3.20;99.90;;;;;;5052323;28;20443;-51
2020/12/09 11:18:08;;;;;;;16.83;8.87;;;3.20;99.90;;;;;;5051995;28;20554;-52
2020/12/09 11:20:37;;;;;;;16.87;8.63;;;3.10;99.90;;;;;;5051841;28;20537;-51
2020/12/09 11:23:04;;;;;;;15.03;8.20;;;3.00;99.90;;;;;;5052023;28;20467;-52
2020/12/09 11:25:31;;;;;;;15.60;7.40;;;3.10;99.90;;;;;;5052060;28;20526;-52
2020/12/09 11:27:58;;;;;;;10.63;6.97;;;3.20;99.90;;;;;;5051304;28;20463;-52
2020/12/09 11:30:24;;;;;;;9.30;6.10;;;3.20;99.90;;;;;;5050578;28;20475;-51
2020/12/09 11:32:51;;;;;;;13.17;8.00;;;3.20;99.90;;;;;;5051630;28;20477;-52
2020/12/09 11:35:17;;;;;;;15.77;9.67;;;3.20;99.90;;;;;;5051804;28;20439;-52
2020/12/09 11:37:43;;;;;;;17.23;9.73;;;2.90;99.90;;;;;;5051303;28;20452;-51
2020/12/09 11:40:10;;;;;;;19.07;10.67;;;2.80;99.90;;;;;;5051567;28;20604;-51
2020/12/09 11:42:38;;;;;;;18.50;9.80;;;2.90;99.90;;;;;;5051868;28;20521;-52
2020/12/09 11:45:05;;;;;;;22.03;13.37;;;3.00;99.90;;;;;;5051589;28;20444;-52
2020/12/09 11:47:32;;;;;;;14.37;7.50;;;3.00;99.90;;;;;;5051348;28;20484;-51
2020/12/09 11:49:59;;;;;;;13.00;7.97;;;3.10;99.90;;;;;;5051084;28;20468;-52
2020/12/09 11:52:25;;;;;;;13.90;7.67;;;3.00;99.90;;;;;;5051186;28;20480;-51
2020/12/09 11:54:51;;;;;;;11.03;6.70;;;3.10;99.90;;;;;;5051210;28;20884;-52
2020/12/09 11:57:18;;;;;;;13.93;7.77;;;3.10;99.90;;;;;;5050656;28;20501;-51
2020/12/09 11:59:45;;;;;;;13.23;6.63;;;3.10;99.90;;;;;;5050879;28;20447;-52
2020/12/09 12:02:12;;;;;;;11.17;6.70;;;3.00;99.90;;;;;;5051331;28;20452;-52
2020/12/09 12:04:40;;;;;;;10.33;6.13;;;3.00;99.90;;;;;;5051221;28;20443;-52
2020/12/09 12:07:06;;;;;;;12.03;6.80;;;2.90;99.90;;;;;;5050768;28;20534;-51
2020/12/09 12:09:33;;;;;;;11.43;7.27;;;3.00;99.90;;;;;;5031045;28;20453;-51
2020/12/09 12:11:59;;;;;;;17.33;8.37;;;2.80;99.90;;;;;;5050671;28;20483;-52
2020/12/09 12:14:26;;;;;;;15.00;8.10;;;2.80;99.90;;;;;;5050862;28;20459;-51
2020/12/09 12:16:53;;;;;;;14.70;8.30;;;2.90;99.90;;;;;;5050067;28;20658;-51
2020/12/09 12:19:20;;;;;;;11.30;6.70;;;3.00;99.90;;;;;;5048698;28;20444;-51
2020/12/09 12:21:48;;;;;;;15.77;9.60;;;3.00;99.90;;;;;;5050270;28;20456;-51
2020/12/09 12:24:16;;;;;;;10.97;6.50;;;2.70;99.90;;;;;;5050358;28;20536;-51
2020/12/09 12:26:43;;;;;;;11.30;6.47;;;2.70;99.90;;;;;;5050661;28;20450;-51
2020/12/09 12:29:09;;;;;;;8.67;5.77;;;2.70;99.90;;;;;;5050469;28;20661;-51
2020/12/09 12:31:36;;;;;;;8.90;5.80;;;2.90;99.90;;;;;;5048553;28;20514;-51
2020/12/09 12:34:03;;;;;;;8.20;5.73;;;2.80;99.90;;;;;;5051466;28;20510;-52
2020/12/09 12:36:30;;;;;;;8.07;5.27;;;2.70;99.90;;;;;;5058979;28;20451;-52
2020/12/09 12:38:56;;;;;;;8.53;5.80;;;2.90;99.90;;;;;;5052758;28;20440;-51
2020/12/09 12:41:23;;;;;;;8.87;5.57;;;2.90;99.90;;;;;;5051000;28;20833;-50
2020/12/09 12:43:51;;;;;;;9.93;6.30;;;2.90;99.90;;;;;;5049120;28;20799;-52